METAR Data
IDs: Format: Raw Decoded Include TAF

Data at: 1806 UTC 26 Sep 2021

UAAA 261800Z 14001MPS 5000 FU FEW100 SCT200 13/M04 Q1009 R05R/CLRD65 NOSIG